createdAt,value
2017-05-20T00:02:25.626Z,21.30
2017-05-20T00:05:20.752Z,21.24
2017-05-20T00:08:15.856Z,21.16
2017-05-20T00:11:10.908Z,21.08
2017-05-20T00:14:05.887Z,21.02
2017-05-20T00:17:00.876Z,20.96
2017-05-20T00:19:55.884Z,20.89
2017-05-20T00:22:50.847Z,20.84
2017-05-20T00:25:45.832Z,20.77
2017-05-20T00:28:40.785Z,20.69
2017-05-20T00:31:35.875Z,20.62
2017-05-20T00:34:30.920Z,20.59
2017-05-20T00:37:25.953Z,20.50
2017-05-20T00:40:20.835Z,20.38
2017-05-20T00:43:15.882Z,20.26
2017-05-20T00:46:10.836Z,20.12
2017-05-20T00:49:05.848Z,19.98
2017-05-20T00:52:00.777Z,19.87
2017-05-20T00:54:55.673Z,19.76
2017-05-20T01:00:28.758Z,19.70
2017-05-20T01:03:13.186Z,19.82
2017-05-20T01:09:02.153Z,19.56
2017-05-20T01:11:56.887Z,19.33
2017-05-20T01:14:51.810Z,19.16
2017-05-20T01:20:24.776Z,19.01
2017-05-20T01:23:09.076Z,19.15
2017-05-20T01:26:03.318Z,19.09
2017-05-20T01:28:57.899Z,18.95
2017-05-20T01:31:52.584Z,18.83
2017-05-20T01:40:33.769Z,18.72
2017-05-20T01:43:18.054Z,18.91
2017-05-20T01:46:12.265Z,18.88
2017-05-20T01:49:06.785Z,18.76
2017-05-20T01:52:01.566Z,18.62
2017-05-20T01:55:30.258Z,18.44
2017-05-20T02:02:10.807Z,18.35
2017-05-20T02:04:58.407Z,18.36
2017-05-20T02:07:52.964Z,18.32
2017-05-20T02:13:59.654Z,18.35
2017-05-20T02:16:43.602Z,18.53
2017-05-20T02:19:37.695Z,18.48
2017-05-20T02:22:32.182Z,18.38
2017-05-20T02:25:38.102Z,18.26
2017-05-20T02:32:13.958Z,18.29
2017-05-20T02:34:57.934Z,18.51
2017-05-20T02:37:51.839Z,18.44
2017-05-20T02:40:46.276Z,18.27
2017-05-20T02:43:40.831Z,18.16
2017-05-20T02:54:36.842Z,18.12
2017-05-20T02:57:31.015Z,18.10
2017-05-20T03:00:25.635Z,18.04
2017-05-20T03:03:20.227Z,17.98
2017-05-20T03:06:14.935Z,17.92
2017-05-20T03:09:09.668Z,17.83
2017-05-20T03:12:38.553Z,17.75
2017-05-20T03:15:25.113Z,17.74
2017-05-20T03:18:19.623Z,17.71
2017-05-20T03:21:14.330Z,17.71
2017-05-20T03:24:09.168Z,17.68
2017-05-20T03:28:56.857Z,17.62
2017-05-20T03:31:41.349Z,17.79
2017-05-20T03:35:20.796Z,17.76
2017-05-20T03:38:06.593Z,17.79
2017-05-20T03:41:12.243Z,17.75
2017-05-20T03:44:02.082Z,17.74
2017-05-20T03:47:19.242Z,17.67
2017-05-20T03:55:34.593Z,18.12
2017-05-20T03:58:18.107Z,18.43
2017-05-20T04:07:13.666Z,18.72
2017-05-20T04:09:57.227Z,18.87
2017-05-20T04:12:50.953Z,18.64
2017-05-20T04:16:41.795Z,18.25
2017-05-20T04:24:32.289Z,18.21
2017-05-20T04:27:15.872Z,18.29
2017-05-20T04:30:09.705Z,18.10
2017-05-20T04:33:04.053Z,17.86
2017-05-20T04:35:58.549Z,17.65
2017-05-20T04:44:32.222Z,17.80
2017-05-20T04:47:15.798Z,18.03
2017-05-20T04:50:09.704Z,17.96
2017-05-20T04:53:15.356Z,17.79
2017-05-20T04:56:05.105Z,17.66
2017-05-20T04:58:59.672Z,17.50
2017-05-20T05:01:54.477Z,17.35
2017-05-20T05:04:49.206Z,17.23
2017-05-20T05:08:06.513Z,17.10
2017-05-20T05:12:24.660Z,17.05
2017-05-20T05:15:09.217Z,17.19
2017-05-20T05:18:03.553Z,17.19
2017-05-20T05:20:58.111Z,17.12
2017-05-20T05:23:52.856Z,17.08
2017-05-20T05:26:47.626Z,17.03
2017-05-20T05:29:42.329Z,17.00
2017-05-20T05:32:37.158Z,17.01
2017-05-20T05:35:31.940Z,17.02
2017-05-20T05:38:26.756Z,16.99
2017-05-20T05:41:21.486Z,16.92
2017-05-20T05:46:42.985Z,16.95
2017-05-20T05:49:27.231Z,17.19
2017-05-20T05:52:21.360Z,17.25
2017-05-20T05:55:15.957Z,17.20
2017-05-20T05:58:10.620Z,17.18
2017-05-20T06:01:05.347Z,17.19
2017-05-20T06:04:00.188Z,17.23
2017-05-20T06:06:54.939Z,17.29
2017-05-20T06:09:49.660Z,17.36
2017-05-20T06:12:44.519Z,17.45
2017-05-20T06:15:39.287Z,17.47
2017-05-20T06:18:34.248Z,17.51
2017-05-20T06:21:28.988Z,17.54
2017-05-20T06:24:23.827Z,17.59
2017-05-20T06:27:18.643Z,17.61
2017-05-20T06:30:13.445Z,17.64
2017-05-20T06:33:08.155Z,17.66
2017-05-20T06:36:03.134Z,17.70
2017-05-20T06:38:57.941Z,17.71
2017-05-20T06:41:52.841Z,17.71
2017-05-20T06:44:47.693Z,17.69
2017-05-20T06:47:42.470Z,17.69
2017-05-20T06:50:37.311Z,17.67
2017-05-20T06:53:32.175Z,17.67
2017-05-20T06:59:21.776Z,17.70
2017-05-20T07:02:16.675Z,17.69
2017-05-20T07:05:11.491Z,17.66
2017-05-20T07:08:06.265Z,17.65
2017-05-20T07:11:01.124Z,17.65
2017-05-20T07:13:56.010Z,17.65
2017-05-20T07:16:50.821Z,17.67
2017-05-20T07:19:45.566Z,17.69
2017-05-20T07:22:40.332Z,17.72
2017-05-20T07:25:35.197Z,17.74
2017-05-20T07:28:29.942Z,17.82
2017-05-20T07:31:24.758Z,17.85
2017-05-20T07:34:19.570Z,17.90
2017-05-20T07:37:14.441Z,17.89
2017-05-20T07:40:09.233Z,17.89
2017-05-20T07:43:04.081Z,17.89
2017-05-20T07:45:58.936Z,17.87
2017-05-20T07:48:53.760Z,17.83
2017-05-20T07:51:48.530Z,17.89
2017-05-20T07:54:43.370Z,18.07
2017-05-20T07:57:38.195Z,18.21
2017-05-20T08:00:33.030Z,18.46
2017-05-20T08:03:27.940Z,18.78
2017-05-20T08:06:22.865Z,19.01
2017-05-20T08:09:17.840Z,19.17
2017-05-20T08:12:12.841Z,19.41
2017-05-20T08:15:07.737Z,19.72
2017-05-20T08:18:03.174Z,20.01
2017-05-20T08:20:58.111Z,20.22
2017-05-20T08:23:53.419Z,20.40
2017-05-20T08:26:48.462Z,20.71
2017-05-20T08:29:43.574Z,21.17
2017-05-20T08:32:38.684Z,21.48
2017-05-20T08:35:33.756Z,21.88
2017-05-20T08:38:28.824Z,22.08
2017-05-20T08:41:23.974Z,22.14
2017-05-20T08:44:19.078Z,22.20
2017-05-20T08:47:14.202Z,21.97
2017-05-20T08:50:09.186Z,21.85
2017-05-20T08:55:59.405Z,22.21
2017-05-20T08:58:54.475Z,22.66
2017-05-20T09:01:49.642Z,23.04
2017-05-20T09:04:44.826Z,23.39
2017-05-20T09:07:40.006Z,23.55
2017-05-20T09:10:35.199Z,23.71
2017-05-20T09:13:30.444Z,23.77
2017-05-20T09:16:25.717Z,23.89
2017-05-20T09:19:20.901Z,23.87
2017-05-20T09:22:16.111Z,23.82
2017-05-20T09:25:11.348Z,23.81
2017-05-20T09:28:06.575Z,23.83
2017-05-20T09:31:01.831Z,24.06
2017-05-20T09:33:56.980Z,24.21
2017-05-20T09:36:52.261Z,24.36
2017-05-20T09:39:47.564Z,24.44
2017-05-20T09:42:42.831Z,24.54
2017-05-20T09:45:38.187Z,24.63
2017-05-20T09:48:33.527Z,24.61
2017-05-20T09:51:28.866Z,24.56
2017-05-20T09:54:24.141Z,24.63
2017-05-20T09:57:19.485Z,24.62
2017-05-20T10:00:14.714Z,24.53
2017-05-20T10:03:09.990Z,24.35
2017-05-20T10:06:05.152Z,24.18
2017-05-20T10:09:00.299Z,24.07
2017-05-20T10:11:55.547Z,23.92
2017-05-20T10:14:50.762Z,23.88
2017-05-20T10:17:45.918Z,23.75
2017-05-20T10:20:41.027Z,23.59
2017-05-20T10:23:36.247Z,23.57
2017-05-20T10:26:31.502Z,23.61
2017-05-20T10:29:26.649Z,23.73
2017-05-20T10:32:21.838Z,23.70
2017-05-20T10:35:16.858Z,23.51
2017-05-20T10:38:11.982Z,23.48
2017-05-20T10:41:07.076Z,23.54
2017-05-20T10:46:57.499Z,23.45
2017-05-20T10:49:52.720Z,23.36
2017-05-20T10:52:47.866Z,23.26
2017-05-20T10:55:42.981Z,23.23
2017-05-20T10:58:38.268Z,23.24
2017-05-20T11:01:33.359Z,23.25
2017-05-20T11:04:28.543Z,23.23
2017-05-20T11:07:23.518Z,23.13
2017-05-20T11:10:18.714Z,23.06
2017-05-20T11:13:13.870Z,22.99
2017-05-20T11:16:08.860Z,22.93
2017-05-20T11:19:04.149Z,22.85
2017-05-20T11:21:59.316Z,22.80
2017-05-20T11:24:54.475Z,22.75
2017-05-20T11:27:49.556Z,22.71
2017-05-20T11:30:44.672Z,22.64
2017-05-20T11:33:39.684Z,22.57
2017-05-20T11:36:34.838Z,22.51
2017-05-20T11:39:30.069Z,22.48
2017-05-20T11:42:25.167Z,22.48
2017-05-20T11:45:20.287Z,22.47
2017-05-20T11:48:15.393Z,22.44
2017-05-20T11:51:10.519Z,22.43
2017-05-20T11:54:05.699Z,22.35
2017-05-20T11:57:00.769Z,22.25
2017-05-20T11:59:55.789Z,22.18
2017-05-20T12:02:50.903Z,22.13
2017-05-20T12:05:45.988Z,22.09
2017-05-20T12:08:41.002Z,22.06
2017-05-20T12:11:35.981Z,22.04
2017-05-20T12:14:31.134Z,22.00
2017-05-20T12:17:26.685Z,21.98
2017-05-20T12:20:21.245Z,21.98
2017-05-20T12:23:16.263Z,21.96
2017-05-20T12:26:11.288Z,21.93
2017-05-20T12:29:06.394Z,21.90
2017-05-20T12:32:01.464Z,21.85
2017-05-20T12:34:56.580Z,21.80
2017-05-20T12:37:51.617Z,21.79
2017-05-20T12:40:46.540Z,21.78
2017-05-20T12:49:31.514Z,21.71
2017-05-20T12:52:26.426Z,21.67
2017-05-20T13:01:11.513Z,21.69
2017-05-20T13:04:06.604Z,21.74
2017-05-20T13:07:01.626Z,21.78
2017-05-20T13:09:56.629Z,21.74
2017-05-20T13:12:51.630Z,21.72
2017-05-20T13:15:46.576Z,21.74
2017-05-20T13:18:41.634Z,21.79
2017-05-20T13:21:36.703Z,21.80
2017-05-20T13:24:31.685Z,21.82
2017-05-20T13:27:26.706Z,21.81
2017-05-20T13:30:21.787Z,21.78
2017-05-20T13:33:16.904Z,21.74
2017-05-20T13:36:11.912Z,21.72
2017-05-20T13:39:06.961Z,21.73
2017-05-20T13:42:02.030Z,21.76
2017-05-20T13:44:57.218Z,21.77
2017-05-20T13:47:52.168Z,21.81
2017-05-20T13:50:47.141Z,21.85
2017-05-20T13:53:42.286Z,21.88
2017-05-20T13:59:32.389Z,21.85
2017-05-20T14:02:27.441Z,21.82
2017-05-20T14:05:22.560Z,21.78
2017-05-20T14:08:17.551Z,21.76
2017-05-20T14:11:12.592Z,21.73
2017-05-20T14:14:07.611Z,21.72
2017-05-20T14:17:02.569Z,21.70
2017-05-20T14:19:57.743Z,21.68
2017-05-20T14:22:52.848Z,21.65
2017-05-20T14:25:47.829Z,21.62
2017-05-20T14:28:42.836Z,21.60
2017-05-20T14:31:37.865Z,21.60
2017-05-20T14:34:32.961Z,21.61
2017-05-20T14:37:28.059Z,21.66
2017-05-20T14:40:23.066Z,21.70
2017-05-20T14:43:18.171Z,21.74
2017-05-20T14:46:13.257Z,21.75
2017-05-20T14:49:08.357Z,21.74
2017-05-20T14:52:03.373Z,21.71
2017-05-20T14:54:58.453Z,21.66
2017-05-20T14:57:53.518Z,21.64
2017-05-20T15:00:48.538Z,21.64
2017-05-20T15:03:43.506Z,21.63
2017-05-20T15:06:38.591Z,21.60
2017-05-20T15:09:33.653Z,21.59
2017-05-20T15:12:28.693Z,21.56
2017-05-20T15:15:23.944Z,21.53
2017-05-20T15:18:18.988Z,21.53
2017-05-20T15:21:13.974Z,21.49
2017-05-20T15:24:09.123Z,21.47
2017-05-20T15:27:04.313Z,21.46
2017-05-20T15:29:59.339Z,21.41
2017-05-20T15:32:54.356Z,21.29
2017-05-20T15:35:49.353Z,21.19
2017-05-20T15:38:44.343Z,21.01
2017-05-20T15:41:39.263Z,20.89
2017-05-20T15:44:34.265Z,20.82
2017-05-20T15:47:29.317Z,20.76
2017-05-20T15:50:24.274Z,20.70
2017-05-20T15:53:19.260Z,20.65
2017-05-20T15:56:14.284Z,20.63
2017-05-20T15:59:09.343Z,20.62
2017-05-20T16:02:04.337Z,20.60
2017-05-20T16:04:59.369Z,20.57
2017-05-20T16:07:54.366Z,20.54
2017-05-20T16:13:44.354Z,20.56
2017-05-20T16:16:39.474Z,20.57
2017-05-20T16:19:34.466Z,20.61
2017-05-20T16:25:24.575Z,20.68
2017-05-20T16:28:19.531Z,20.70
2017-05-20T16:31:14.536Z,20.70
2017-05-20T16:34:09.498Z,20.70
2017-05-20T16:37:04.489Z,20.72
2017-05-20T16:39:59.495Z,20.76
2017-05-20T16:42:54.420Z,20.74
2017-05-20T16:45:49.448Z,20.73
2017-05-20T16:48:44.424Z,20.73
2017-05-20T16:51:39.370Z,20.75
2017-05-20T16:54:34.443Z,20.72
2017-05-20T16:57:29.466Z,20.68
2017-05-20T17:00:24.483Z,20.67
2017-05-20T17:03:19.457Z,20.65
2017-05-20T17:06:14.834Z,20.62
2017-05-20T17:09:09.935Z,20.60
2017-05-20T17:12:04.911Z,20.58
2017-05-20T17:14:59.895Z,20.54
2017-05-20T17:17:54.880Z,20.51
2017-05-20T17:20:49.823Z,20.51
2017-05-20T17:23:44.808Z,20.51
2017-05-20T17:26:39.791Z,20.50
2017-05-20T17:29:34.832Z,20.48
2017-05-20T17:32:29.795Z,20.44
2017-05-20T17:35:24.800Z,20.40
2017-05-20T17:38:19.809Z,20.38
2017-05-20T17:41:14.588Z,20.34
2017-05-20T17:44:09.516Z,20.32
2017-05-20T17:49:59.291Z,20.28
2017-05-20T17:52:54.208Z,20.25
2017-05-20T17:55:49.138Z,20.21
2017-05-20T17:58:44.119Z,20.18
2017-05-20T18:01:39.019Z,20.15
2017-05-20T18:04:34.044Z,20.14
2017-05-20T18:07:28.972Z,20.11
2017-05-20T18:10:23.975Z,20.12
2017-05-20T18:13:18.880Z,20.11
2017-05-20T18:16:13.873Z,20.08
2017-05-20T18:19:08.943Z,20.06
2017-05-20T18:22:03.867Z,20.04
2017-05-20T18:24:58.729Z,20.01
2017-05-20T18:27:53.676Z,20.00
2017-05-20T18:30:48.787Z,19.97
2017-05-20T18:33:43.696Z,19.94
2017-05-20T18:36:38.666Z,19.91
2017-05-20T18:39:33.623Z,19.89
2017-05-20T18:42:28.527Z,19.87
2017-05-20T18:45:23.498Z,19.82
2017-05-20T18:48:18.400Z,19.77
2017-05-20T18:51:13.319Z,19.73
2017-05-20T18:57:03.439Z,19.66
2017-05-20T18:59:58.349Z,19.61
2017-05-20T19:02:53.232Z,19.56
2017-05-20T19:05:48.115Z,19.51
2017-05-20T19:08:42.900Z,19.48
2017-05-20T19:11:37.819Z,19.43
2017-05-20T19:14:32.759Z,19.39
2017-05-20T19:17:27.667Z,19.35
2017-05-20T19:20:22.523Z,19.31
2017-05-20T19:23:17.595Z,19.26
2017-05-20T19:26:12.506Z,19.21
2017-05-20T19:29:07.379Z,19.17
2017-05-20T19:32:02.346Z,19.12
2017-05-20T19:34:57.327Z,19.06
2017-05-20T19:37:52.245Z,19.00
2017-05-20T19:40:47.146Z,18.95
2017-05-20T19:43:42.020Z,18.90
2017-05-20T19:46:36.825Z,18.86
2017-05-20T19:49:31.679Z,18.82
2017-05-20T19:52:26.482Z,18.79
2017-05-20T19:55:21.334Z,18.75
2017-05-20T20:01:11.162Z,18.65
2017-05-20T20:04:06.080Z,18.61
2017-05-20T20:07:00.989Z,18.59
2017-05-20T20:09:55.921Z,18.55
2017-05-20T20:12:50.783Z,18.51
2017-05-20T20:15:45.659Z,18.48
2017-05-20T20:18:40.519Z,18.46
2017-05-20T20:21:35.768Z,18.44
2017-05-20T20:24:30.610Z,18.41
2017-05-20T20:27:25.386Z,18.37
2017-05-20T20:30:20.197Z,18.33
2017-05-20T20:33:15.041Z,18.31
2017-05-20T20:36:09.939Z,18.28
2017-05-20T20:39:04.790Z,18.24
2017-05-20T20:41:59.606Z,18.21
2017-05-20T20:44:54.446Z,18.15
2017-05-20T20:47:49.168Z,18.12
2017-05-20T20:50:43.981Z,18.09
2017-05-20T20:53:38.817Z,18.07
2017-05-20T20:56:33.570Z,18.03
2017-05-20T20:59:28.445Z,18.00
2017-05-20T21:02:23.276Z,17.98
2017-05-20T21:05:18.146Z,17.96
2017-05-20T21:08:12.850Z,17.94
2017-05-20T21:11:07.638Z,17.93
2017-05-20T21:14:02.541Z,17.90
2017-05-20T21:16:57.599Z,17.86
2017-05-20T21:19:52.447Z,17.82
2017-05-20T21:22:47.219Z,17.81
2017-05-20T21:25:42.053Z,17.79
2017-05-20T21:28:36.867Z,17.74
2017-05-20T21:31:31.609Z,17.69
2017-05-20T21:34:26.329Z,17.66
2017-05-20T21:37:21.133Z,17.62
2017-05-20T21:40:15.949Z,17.57
2017-05-20T21:43:10.683Z,17.53
2017-05-20T21:46:05.451Z,17.49
2017-05-20T21:49:00.148Z,17.45
2017-05-20T21:51:54.941Z,17.41
2017-05-20T21:54:49.984Z,17.37
2017-05-20T21:57:44.611Z,17.34
2017-05-20T22:00:39.454Z,17.31
2017-05-20T22:03:34.135Z,17.26
2017-05-20T22:06:28.793Z,17.23
2017-05-20T22:09:23.576Z,17.19
2017-05-20T22:12:18.204Z,17.15
2017-05-20T22:15:12.873Z,17.11
2017-05-20T22:18:07.602Z,17.09
2017-05-20T22:21:02.368Z,17.07
2017-05-20T22:23:57.116Z,17.03
2017-05-20T22:26:52.012Z,17.01
2017-05-20T22:29:46.794Z,16.97
2017-05-20T22:32:41.614Z,16.94
2017-05-20T22:35:36.198Z,16.92
2017-05-20T22:38:30.894Z,16.89
2017-05-20T22:41:25.653Z,16.88
2017-05-20T22:44:20.365Z,16.87
2017-05-20T22:47:15.018Z,16.83
2017-05-20T22:53:04.603Z,16.77
2017-05-20T22:55:59.602Z,16.73
2017-05-20T22:58:54.315Z,16.70
2017-05-20T23:01:49.084Z,16.70
2017-05-20T23:04:43.833Z,16.69
2017-05-20T23:07:38.644Z,16.68
2017-05-20T23:10:33.303Z,16.66
2017-05-20T23:13:27.903Z,16.64
2017-05-20T23:16:22.596Z,16.63
2017-05-20T23:19:17.551Z,16.61
2017-05-20T23:22:12.276Z,16.61
2017-05-20T23:25:07.090Z,16.60
2017-05-20T23:28:01.704Z,16.59
2017-05-20T23:30:56.518Z,16.58
2017-05-20T23:33:51.252Z,16.58
2017-05-20T23:36:46.018Z,16.56
2017-05-20T23:39:40.773Z,16.53
2017-05-20T23:42:35.588Z,16.52
2017-05-20T23:45:30.210Z,16.49
2017-05-20T23:48:25.100Z,16.46
2017-05-20T23:51:19.948Z,16.43
2017-05-20T23:54:14.580Z,16.40
2017-05-20T23:57:09.316Z,16.39
